Flight Track Log - Related Links

Times and Time Zones

All times are in EST time to prevent confusion due to time zone crossing. See the UPS1189 flight status page for this flight to view local times or setup timezone preferences in your user account.


Time Position Orientation Groundspeed Altitude Reporting Facility
EST Latitude Longitude Course Direction KTS MPH feet Rate Location/Type
Fri 11:24:12 PM 39.8566 -75.2857 245° Southwest 148 170 2,100  Level FlightAware ADS-B (KWWD)
Fri 11:24:35 PM 39.8479 -75.3073 242° Southwest 196 226 2,500 2,143 Climbing FlightAware ADS-B (KWWD)
Fri 11:24:54 PM 39.8397 -75.3284 243° Southwest 204 235 3,600 3,632 Climbing FlightAware ADS-B (KWWD)
Fri 11:25:13 PM 39.8324 -75.3491 245° Southwest 213 245 4,800 3,000 Climbing FlightAware ADS-B (BHX / EGBB)
Fri 11:25:34 PM 39.8300 -75.3773 264° West 234 269 5,600 3,250 Climbing FlightAware ADS-B (BHX / EGBB)
Fri 11:25:37 PM 39.8308 -75.3860 277° West 238 274 6,100 4,200 Climbing FlightAware ADS-B (KMTJ)
Fri 11:25:54 PM 39.8324 -75.3974 280° West 237 273 7,000 3,167 Climbing FlightAware ADS-B (BHX / EGBB)
Fri 11:26:13 PM 39.8370 -75.4336 279° West 244 281 8,000 3,150 Climbing FlightAware ADS-B (KWWD)
Fri 11:26:34 PM 39.8400 -75.4648 277° West 252 290 9,100 2,488 Climbing FlightAware ADS-B (KWWD)
Fri 11:26:54 PM 39.8431 -75.4941 278° West 254 292 9,700 1,297 Climbing FlightAware ADS-B (BHX / EGBB)
Fri 11:27:11 PM 39.8457 -75.5189 278° West 260 299 9,900 324 Climbing FlightAware ADS-B (BHX / EGBB)
Fri 11:27:31 PM 39.8493 -75.5532 278° West 300 345 9,900 146 Level FlightAware ADS-B (BHX / EGBB)
Fri 11:27:52 PM 39.8530 -75.5902 277° West 313 360 10,000  Climbing FlightAware ADS-B (BHX / EGBB)
Fri 11:28:11 PM 39.8564 -75.6234 278° West 310 357 9,900 -140 Descending FlightAware ADS-B (BHX / EGBB)
Fri 11:28:35 PM 39.8601 -75.6732 276° West 308 354 9,900 146 Level FlightAware ADS-B (KWWD)
Fri 11:28:52 PM 39.8625 -75.7033 276° West 312 359 10,000 2,200 Climbing FlightAware ADS-B (KWWD)
Fri 11:29:35 PM 39.8623 -75.7851 270° West 317 365 12,100 2,778 Climbing FlightAware ADS-B (KWWD)
Fri 11:29:46 PM 39.8597 -75.8022 259° West 334 384 12,500 3,574 Climbing FlightAware ADS-B
Fri 11:30:22 PM 39.8430 -75.8755 253° West 360 414 14,900 3,522 Climbing FlightAware ADS-B (BHX / EGBB)
Fri 11:30:32 PM 39.8407 -75.8856 254° West 363 418 15,200 3,191 Climbing FlightAware ADS-B
Fri 11:31:09 PM 39.8205 -75.9723 253° West 377 434 17,400 3,549 Climbing FlightAware ADS-B (BHX / EGBB)
Fri 11:31:43 PM 39.8015 -76.0520 253° West 386 444 19,400 3,452 Climbing FlightAware ADS-B
Fri 11:32:22 PM 39.7799 -76.1412 253° West 396 456 21,600 3,375 Climbing FlightAware ADS-B
Fri 11:32:47 PM 39.7668 -76.1988 254° West 407 468 23,000 2,842 Climbing FlightAware ADS-B (BHX / EGBB)
Fri 11:33:19 PM 39.7515 -76.2692 254° West 413 475 24,300 2,545 Climbing FlightAware ADS-B
Fri 11:33:53 PM 39.7322 -76.3564 254° West 423 487 25,800 2,830 Climbing FlightAware ADS-B (KWWD)
Fri 11:34:12 PM 39.7219 -76.4018 254° West 425 489 26,800 2,743 Climbing FlightAware ADS-B (BHX / EGBB)
Fri 11:34:28 PM 39.7134 -76.4370 252° West 424 488 27,400 2,286 Climbing FlightAware ADS-B (BHX / EGBB)
Fri 11:35:15 PM 39.6870 -76.5559 254° West 426 490 29,200 2,419 Climbing FlightAware ADS-B (KWWD)
Fri 11:35:30 PM 39.6786 -76.5928 254° West 425 489 29,900 2,750 Climbing FlightAware ADS-B (KWWD)
Fri 11:36:03 PM 39.6676 -76.6411 253° West 417 480 31,400 1,938 Climbing FlightAware ADS-B
Fri 11:36:35 PM 39.6433 -76.7477 254° West 410 472 32,000 545 Climbing FlightAware ADS-B (KWWD)
Fri 11:37:09 PM 39.6249 -76.8278 253° West 410 472 32,000  Level FlightAware ADS-B (KWWD)
Fri 11:38:15 PM 39.6043 -76.9178 253° West 408 470 32,000  Level FlightAware ADS-B
Fri 11:38:57 PM 39.5669 -77.0797 253° West 410 472 32,000  Level FlightAware ADS-B (KWWD)
Fri 11:39:36 PM 39.5470 -77.1649 253° West 403 464 32,000  Level FlightAware ADS-B
Fri 11:40:31 PM 39.5201 -77.2805 253° West 401 461 32,000  Level FlightAware ADS-B
Fri 11:41:29 PM 39.4873 -77.4199 253° West 401 461 32,000  Level FlightAware ADS-B
Fri 11:43:09 PM 39.4381 -77.6280 253° West 402 463 32,000  Level FlightAware ADS-B
Fri 11:44:09 PM 39.3981 -77.7959 253° West 401 461 32,000  Level FlightAware ADS-B (KWWD)
Fri 11:45:15 PM 39.3481 -77.9426 246° West 404 465 32,000  Level FlightAware ADS-B (KWWD)
Fri 11:48:46 PM 39.1646 -78.4020 243° Southwest 411 473 32,000  Level FlightAware ADS-B (KWWD)
Fri 11:49:37 PM 39.1196 -78.5133 242° Southwest 408 470 32,000  Level FlightAware ADS-B (KWWD)
Fri 11:55:07 PM 38.8346 -79.2322 243° Southwest 413 475 32,000  Level FlightAware ADS-B (KWWD)
Fri 11:56:35 PM 38.7960 -79.4434 257° West 415 478 32,000  Level FlightAware ADS-B (KWWD)
Fri 11:57:39 PM 38.7711 -79.5828 257° West 417 480 32,000  Level Indianapolis Center
Fri 11:58:40 PM 38.7464 -79.7214 257° West 414 476 32,000  Level Indianapolis Center
Fri 11:59:41 PM 38.7186 -79.8631 256° West 420 483 32,000  Level Indianapolis Center
Sat 12:00:42 AM 38.6925 -80.0064 257° West 415 478 32,000  Level Indianapolis Center
Sat 12:01:43 AM 38.6656 -80.1492 256° West 413 475 32,000  Level Indianapolis Center
Sat 12:02:44 AM 38.6394 -80.2922 257° West 413 475 32,000  Level Indianapolis Center
Sat 12:03:45 AM 38.6069 -80.4614 256° West 409 471 32,000  Level Indianapolis Center
Sat 12:04:46 AM 38.5808 -80.6011 257° West 406 467 32,000  Level Indianapolis Center
Sat 12:05:47 AM 38.5539 -80.7428 256° West 409 471 32,000  Level Indianapolis Center
Sat 12:06:48 AM 38.5261 -80.8822 256° West 405 466 32,000  Level Indianapolis Center
Sat 12:07:49 AM 38.4992 -81.0231 256° West 405 466 32,000  Level Indianapolis Center
Sat 12:08:50 AM 38.4708 -81.1639 256° West 407 468 32,000  Level Indianapolis Center
Sat 12:09:51 AM 38.4431 -81.3053 256° West 406 467 32,000  Level Indianapolis Center
Sat 12:10:52 AM 38.4153 -81.4469 256° West 407 468 32,000  Level Indianapolis Center
Sat 12:11:53 AM 38.3864 -81.5878 255° West 406 467 32,000  Level Indianapolis Center
Sat 12:12:53 AM 38.3589 -81.7267 256° West 402 463 32,000  Level Indianapolis Center
Sat 12:13:54 AM 38.3247 -81.8631 252° West 402 463 32,000  Level Indianapolis Center
Sat 12:14:55 AM 38.2867 -81.9975 250° West 403 464 32,000  Level Indianapolis Center
Sat 12:15:56 AM 38.2489 -82.1311 250° West 401 461 32,000  Level Indianapolis Center
Sat 12:16:57 AM 38.2131 -82.2633 251° West 396 456 32,000  Level Indianapolis Center
Sat 12:22:56 AM 38.0549 -83.0634 251° West 395 455 32,000  Level FlightAware ADS-B
Sat 12:24:14 AM 38.0147 -83.2609 256° West 398 458 32,000  Level FlightAware ADS-B
Sat 12:25:04 AM 37.9942 -83.3600 256° West 395 455 32,000  Level Indianapolis Center
Sat 12:26:05 AM 37.9661 -83.4961 255° West 398 458 32,000  Level Indianapolis Center
Sat 12:27:06 AM 37.9378 -83.6317 255° West 398 458 32,000  Level Indianapolis Center
Sat 12:28:07 AM 37.9089 -83.7681 255° West 399 459 32,000  Level Indianapolis Center
Sat 12:29:08 AM 37.8811 -83.9014 255° West 394 453 32,000 -1,240 Level Indianapolis Center
Sat 12:30:08 AM 37.8542 -84.0281 255° West 377 434 29,500 -2,529 Descending Indianapolis Center
Sat 12:31:09 AM 37.8294 -84.1461 255° West 352 405 26,900 -2,607 Descending Indianapolis Center
Sat 12:32:10 AM 37.7847 -84.2486 241° Southwest 342 394 24,200 -2,459 Descending Indianapolis Center
Sat 12:33:11 AM 37.7281 -84.3614 238° Southwest 330 380 21,900 -2,115 Descending Indianapolis Center
Sat 12:34:12 AM 37.7006 -84.4672 252° West 318 366 19,900 -2,115 Descending Indianapolis Center
Sat 12:35:13 AM 37.6894 -84.5747 263° West 310 357 17,600 -1,918 Descending Indianapolis Center
Sat 12:36:14 AM 37.6808 -84.6808 264° West 304 350 16,000 -1,131 Descending Indianapolis Center
Sat 12:37:15 AM 37.6706 -84.7844 263° West 299 344 15,300 -1,180 Descending Indianapolis Center
Sat 12:38:16 AM 37.6606 -84.8864 263° West 294 338 13,600 -1,623 Descending Indianapolis Center
Sat 12:39:17 AM 37.6736 -84.9825 280° West 297 342 12,000 -1,525 Descending Indianapolis Center
Sat 12:40:18 AM 37.7333 -85.0633 313° West 311 358 10,500 -1,033 Descending Indianapolis Center
Sat 12:41:19 AM 37.7886 -85.1403 312° West 298 343 9,900 -738 Descending Indianapolis Center
Sat 12:42:20 AM 37.8486 -85.2206 313° West 288 331 9,000 -1,033 Descending Indianapolis Center
Sat 12:43:21 AM 37.8972 -85.2911 311° West 272 313 7,800 -1,180 Descending Indianapolis Center
Sat 12:44:22 AM 37.9472 -85.3589 313° West 264 304 6,600 -885 Descending Indianapolis Center
Sat 12:45:23 AM 37.9969 -85.4264 313° West 261 300 6,000 -298 Descending Indianapolis Center
Sat 12:46:23 AM 38.0431 -85.4958 310° West 258 297 6,000  Level Indianapolis Center
Sat 12:47:24 AM 38.0939 -85.5636 314° West 260 299 6,000  Level Indianapolis Center
Sat 12:48:25 AM 38.1608 -85.6056 334° Northwest 273 314 6,000 -295 Level Indianapolis Center
Sat 12:49:26 AM 38.2339 -85.6367 342° North 277 319 5,400 -492 Descending Indianapolis Center
Sat 12:50:27 AM 38.3078 -85.6608 346° North 276 318 5,000 -197 Descending Indianapolis Center
Sat 12:51:28 AM 38.3636 -85.6822 343° North 236 272 5,000  Level Indianapolis Center
Sat 12:52:29 AM 38.4214 -85.7031 344° North 217 250 5,000  Level Indianapolis Center
Sat 12:53:30 AM 38.4778 -85.7244 343° North 213 245 5,000  Level Indianapolis Center
Sat 12:54:31 AM 38.5272 -85.7544 335° Northwest 203 234 5,000  Level Indianapolis Center
Sat 12:55:32 AM 38.4978 -85.7933 226° Southwest 174 200 5,000  Level Indianapolis Center
Sat 12:56:33 AM 38.4517 -85.8111 197° South 172 198 5,000 -49 Level Indianapolis Center
Sat 12:57:34 AM 38.4011 -85.8044 174° South 184 212 4,900 -639 Descending Indianapolis Center
Sat 12:58:35 AM 38.3408 -85.7842 165° South 192 221 3,700 -984 Descending Indianapolis Center
Sat 12:59:36 AM 38.3017 -85.7708 165° South 174 200 2,900 -595 Descending Indianapolis Center
Sat 01:00:36 AM 38.2703 -85.7603 165° South 162 186 2,500 -651 Descending Indianapolis Center
Sat 01:02:31 AM 38.2167 -85.7333 158° South 120 138 1,000 -783 Descending Louisville TRACON

Login

Don't have an account? Register now (free) for customized features, flight alerts, and more!